Virgem Das Dores — CUBQ-8 — position and weather

sailwx.info

Track history (hours):
 
Tides and Currents Weather Stations Pressure Air Temp Water Temp Dewpoint Dewpoint Depression Visibility Wind Speed Wind Dir Waves Ship Positions

Virgem Das Dores

Last reported at 2017-Oct-16 22:16 UTC. Time now 2017-Oct-16 22:36 UTC.
Position N 41°08' W 008°43'.

Length 22 m.

Type: Fishing. MMSI: 204248000.

Date/timePositionNaut miles runAvg speedWind from/ knotsBaromVisibWave heightAir tempDewpointWater temp
2017-Oct-16 22:16N 41°08' W 008°43'2 9.2
2017-Oct-16 22:00N 41°11' W 008°42'0 0.0
2017-Oct-15 23:15N 41°11' W 008°42'0 0.0
2017-Oct-15 23:00N 41°11' W 008°42'  
2017-Oct-13 10:16N 41°11' W 008°42'0 0.0
2017-Oct-13 10:01N 41°11' W 008°42'0 0.0
2017-Oct-13 09:31N 41°11' W 008°42'0 0.0
2017-Oct-13 09:00N 41°11' W 008°42'0 0.0
2017-Oct-13 08:31N 41°11' W 008°42'0 0.0
2017-Oct-13 08:01N 41°11' W 008°42'3 5.7
2017-Oct-13 07:30N 41°08' W 008°43'1 0.2
2017-Oct-12 22:04N 41°09' W 008°44'1 9.8
2017-Oct-12 22:00N 41°10' W 008°43'1 3.0
2017-Oct-12 21:30N 41°11' W 008°42'0 0.0
2017-Oct-12 08:12N 41°11' W 008°42'0 0.0
2017-Oct-12 08:01N 41°11' W 008°42'0 0.0
2017-Oct-12 07:31N 41°11' W 008°42'0 0.0
2017-Oct-12 07:01N 41°11' W 008°42'0 0.0
2017-Oct-12 06:31N 41°11' W 008°42'0 0.0
2017-Oct-12 06:00N 41°11' W 008°42'8 1.1
2017-Oct-11 22:44N 41°11' W 008°53'7 0.2
2017-Oct-10 09:38N 41°13' W 008°44'110.5
2017-Oct-10 09:30N 41°11' W 008°43'1 2.6
2017-Oct-10 09:01N 41°11' W 008°42'2 3.8
2017-Oct-10 08:31N 41°09' W 008°42'1 0.1
2017-Oct-09 22:08N 41°09' W 008°43'110.2
2017-Oct-09 22:01N 41°10' W 008°43'1 0.1
2017-Oct-09 08:49N 41°11' W 008°42'2 5.1
2017-Oct-09 08:30N 41°09' W 008°43'13 8.4
2017-Oct-09 07:01N 40°60' W 008°53'0 0.2
2017-Oct-09 07:00N 40°60' W 008°53'0 0.2
2017-Oct-09 06:30N 40°60' W 008°53'0 0.3
2017-Oct-09 05:46N 40°60' W 008°54'11 1.7
2017-Oct-08 23:22N 41°06' W 008°42'4 9.9
2017-Oct-08 23:00N 41°10' W 008°42'1 2.5
2017-Oct-08 22:30N 41°11' W 008°42'  
Track history (hours):
 
Tides and Currents Weather Stations Pressure Air Temp Water Temp Dewpoint Dewpoint Depression Visibility Wind Speed Wind Dir Waves Ship Positions

Virgem Das Dores

Last reported at 2017-Oct-16 22:16 UTC. Time now 2017-Oct-16 22:36 UTC.
Position N 41°08' W 008°43'.

Length 22 m.

Type: Fishing. MMSI: 204248000.

Date/timePositionNaut miles runAvg speedWind from/ knotsBaromVisibWave heightAir tempDewpointWater temp
2017-Oct-16 22:16N 41°08' W 008°43'2 9.2
2017-Oct-16 22:00N 41°11' W 008°42'0 0.0
2017-Oct-15 23:15N 41°11' W 008°42'0 0.0
2017-Oct-15 23:00N 41°11' W 008°42'  
2017-Oct-13 10:16N 41°11' W 008°42'0 0.0
2017-Oct-13 10:01N 41°11' W 008°42'0 0.0
2017-Oct-13 09:31N 41°11' W 008°42'0 0.0
2017-Oct-13 09:00N 41°11' W 008°42'0 0.0
2017-Oct-13 08:31N 41°11' W 008°42'0 0.0
2017-Oct-13 08:01N 41°11' W 008°42'3 5.7
2017-Oct-13 07:30N 41°08' W 008°43'1 0.2
2017-Oct-12 22:04N 41°09' W 008°44'1 9.8
2017-Oct-12 22:00N 41°10' W 008°43'1 3.0
2017-Oct-12 21:30N 41°11' W 008°42'0 0.0
2017-Oct-12 08:12N 41°11' W 008°42'0 0.0
2017-Oct-12 08:01N 41°11' W 008°42'0 0.0
2017-Oct-12 07:31N 41°11' W 008°42'0 0.0
2017-Oct-12 07:01N 41°11' W 008°42'0 0.0
2017-Oct-12 06:31N 41°11' W 008°42'0 0.0
2017-Oct-12 06:00N 41°11' W 008°42'8 1.1
2017-Oct-11 22:44N 41°11' W 008°53'7 0.2
2017-Oct-10 09:38N 41°13' W 008°44'110.5
2017-Oct-10 09:30N 41°11' W 008°43'1 2.6
2017-Oct-10 09:01N 41°11' W 008°42'2 3.8
2017-Oct-10 08:31N 41°09' W 008°42'1 0.1
2017-Oct-09 22:08N 41°09' W 008°43'110.2
2017-Oct-09 22:01N 41°10' W 008°43'1 0.1
2017-Oct-09 08:49N 41°11' W 008°42'2 5.1
2017-Oct-09 08:30N 41°09' W 008°43'13 8.4
2017-Oct-09 07:01N 40°60' W 008°53'0 0.2
2017-Oct-09 07:00N 40°60' W 008°53'0 0.2
2017-Oct-09 06:30N 40°60' W 008°53'0 0.3
2017-Oct-09 05:46N 40°60' W 008°54'11 1.7
2017-Oct-08 23:22N 41°06' W 008°42'4 9.9
2017-Oct-08 23:00N 41°10' W 008°42'1 2.5
2017-Oct-08 22:30N 41°11' W 008°42'  

Dump ship's entire track history